Time;durP1;ratioP1;P1;durP2;ratioP2;P2;SDS_P1;SDS_P2;PMS_P1;PMS_P2;Temp;Humidity;BMP_temperature;BMP_pressure;BME280_temperature;BME280_humidity;BME280_pressure;Samples;Min_cycle;Max_cycle;Signal;HPM_P1;HPM_P2
2023/04/26 00:00:13;;;;;;;;;;;19.20;43.60;;;;;;4989555;28;19963;-54
2023/04/26 00:02:38;;;;;;;;;;;19.10;43.50;;;;;;4987410;28;19925;-54
2023/04/26 00:05:06;;;;;;;;;;;19.10;43.40;;;;;;4986609;28;19914;-54
2023/04/26 00:07:31;;;;;;;;;;;19.10;43.40;;;;;;4990713;28;20300;-54
2023/04/26 00:09:57;;;;;;;;;;;19.10;43.50;;;;;;4986341;28;19920;-54
2023/04/26 00:12:22;;;;;;;;;;;19.10;43.50;;;;;;4990116;28;20402;-54
2023/04/26 00:14:48;;;;;;;;;;;19.10;43.60;;;;;;4985295;28;19917;-53
2023/04/26 00:17:13;;;;;;;;;;;19.10;43.50;;;;;;4985479;28;19972;-53
2023/04/26 00:19:38;;;;;;;;;;;19.10;43.50;;;;;;4988596;28;19926;-54
2023/04/26 00:22:04;;;;;;;;;;;19.10;43.70;;;;;;4988736;28;20590;-54
2023/04/26 00:24:30;;;;;;;;;;;19.00;43.60;;;;;;4986717;28;20025;-53
2023/04/26 00:26:55;;;;;;;;;;;19.00;43.60;;;;;;4990458;28;19949;-53
2023/04/26 00:29:21;;;;;;;;;;;19.00;43.60;;;;;;4980907;28;19956;-54
2023/04/26 00:31:46;;;;;;;;;;;19.00;43.60;;;;;;4984933;28;20378;-54
2023/04/26 00:34:12;;;;;;;;;;;19.00;43.60;;;;;;4986631;28;19921;-54
2023/04/26 00:36:37;;;;;;;;;;;19.00;43.60;;;;;;4986174;28;19928;-53
2023/04/26 00:39:03;;;;;;;;;;;19.00;43.60;;;;;;4986252;28;19918;-54
2023/04/26 00:41:28;;;;;;;;;;;18.90;43.60;;;;;;4985429;28;19913;-53
2023/04/26 00:43:53;;;;;;;;;;;18.90;43.60;;;;;;4986926;28;19913;-53
2023/04/26 00:46:19;;;;;;;;;;;18.90;43.60;;;;;;4990197;28;20279;-53
2023/04/26 00:48:45;;;;;;;;;;;18.90;43.60;;;;;;4989364;28;19960;-54
2023/04/26 00:51:10;;;;;;;;;;;18.90;43.50;;;;;;4990070;28;19941;-54
2023/04/26 00:53:36;;;;;;;;;;;18.90;43.70;;;;;;4990544;28;19914;-53
2023/04/26 00:56:02;;;;;;;;;;;18.90;43.70;;;;;;4988948;28;19936;-53
2023/04/26 00:58:27;;;;;;;;;;;18.90;43.90;;;;;;5001218;28;19921;-53
2023/04/26 01:00:53;;;;;;;;;;;18.80;43.70;;;;;;4988101;28;19918;-54
2023/04/26 01:03:18;;;;;;;;;;;18.80;43.90;;;;;;4984046;28;19914;-53
2023/04/26 01:05:44;;;;;;;;;;;18.80;43.80;;;;;;4989912;28;19913;-54
2023/04/26 01:08:09;;;;;;;;;;;18.80;43.80;;;;;;4989313;28;20359;-54
2023/04/26 01:10:35;;;;;;;;;;;18.80;43.80;;;;;;5014697;28;20361;-53
2023/04/26 01:13:00;;;;;;;;;;;18.80;43.80;;;;;;4985241;28;20004;-53
2023/04/26 01:15:29;;;;;;;;;;;18.90;43.80;;;;;;4989253;28;19921;-53
2023/04/26 01:17:56;;;;;;;;;;;18.90;43.60;;;;;;4993443;28;19925;-53
2023/04/26 01:20:22;;;;;;;;;;;18.90;43.50;;;;;;5005259;28;20355;-53
2023/04/26 01:22:47;;;;;;;;;;;18.90;43.50;;;;;;4993449;28;19936;-54
2023/04/26 01:25:12;;;;;;;;;;;19.00;43.50;;;;;;5011081;28;20390;-54
2023/04/26 01:27:38;;;;;;;;;;;19.10;43.40;;;;;;5010269;28;19991;-53
2023/04/26 01:30:04;;;;;;;;;;;19.20;43.30;;;;;;5004587;28;20004;-54
2023/04/26 01:32:29;;;;;;;;;;;19.20;43.20;;;;;;5006981;28;19956;-53
2023/04/26 01:34:55;;;;;;;;;;;19.20;42.90;;;;;;5011808;28;19918;-53
2023/04/26 01:37:20;;;;;;;;;;;19.20;43.00;;;;;;5004375;28;20362;-53
2023/04/26 01:39:46;;;;;;;;;;;19.20;42.90;;;;;;5000649;28;19918;-54
2023/04/26 01:42:11;;;;;;;;;;;19.30;43.00;;;;;;5001644;28;19932;-54
2023/04/26 01:44:37;;;;;;;;;;;19.40;42.80;;;;;;5000054;28;20012;-54
2023/04/26 01:47:03;;;;;;;;;;;19.50;42.70;;;;;;5002384;28;19961;-54
2023/04/26 01:49:28;;;;;;;;;;;19.50;42.50;;;;;;5001715;28;20350;-54
2023/04/26 01:51:54;;;;;;;;;;;19.60;42.50;;;;;;5000034;28;19932;-54
2023/04/26 01:54:20;;;;;;;;;;;19.60;42.30;;;;;;5002789;28;19914;-54
2023/04/26 01:56:45;;;;;;;;;;;19.70;42.10;;;;;;4995685;28;19928;-53
2023/04/26 01:59:11;;;;;;;;;;;19.80;41.90;;;;;;5002744;28;19959;-53
2023/04/26 02:01:36;;;;;;;;;;;19.80;41.80;;;;;;5002541;28;19914;-53
2023/04/26 02:04:02;;;;;;;;;;;19.80;41.80;;;;;;5002443;28;20009;-54
2023/04/26 02:06:27;;;;;;;;;;;19.80;41.80;;;;;;4995185;28;19918;-54
2023/04/26 02:08:52;;;;;;;;;;;19.80;41.70;;;;;;5000008;28;19914;-54
2023/04/26 02:11:18;;;;;;;;;;;19.80;41.60;;;;;;4992970;28;19918;-54
2023/04/26 02:13:43;;;;;;;;;;;19.90;41.60;;;;;;4999134;28;19913;-53
2023/04/26 02:16:09;;;;;;;;;;;19.90;41.60;;;;;;5001778;28;20333;-54
2023/04/26 02:18:34;;;;;;;;;;;19.90;41.50;;;;;;5000990;28;19914;-54
2023/04/26 02:21:00;;;;;;;;;;;19.80;41.50;;;;;;5002383;28;20394;-54
2023/04/26 02:23:25;;;;;;;;;;;19.80;41.50;;;;;;5000105;28;20394;-54
2023/04/26 02:25:51;;;;;;;;;;;19.80;41.60;;;;;;5000662;28;19913;-53
2023/04/26 02:28:16;;;;;;;;;;;19.80;41.50;;;;;;5002525;28;19914;-54
2023/04/26 02:30:42;;;;;;;;;;;19.80;41.60;;;;;;5006546;28;20366;-54
2023/04/26 02:33:07;;;;;;;;;;;19.70;41.70;;;;;;4998486;28;19914;-53
2023/04/26 02:35:33;;;;;;;;;;;19.60;41.80;;;;;;5000458;28;19913;-53
2023/04/26 02:37:58;;;;;;;;;;;19.60;41.80;;;;;;5013633;28;19964;-53
2023/04/26 02:40:24;;;;;;;;;;;19.60;41.70;;;;;;4999634;28;20279;-54
2023/04/26 02:42:50;;;;;;;;;;;19.70;41.70;;;;;;5000486;28;19918;-53
2023/04/26 02:45:15;;;;;;;;;;;19.60;42.00;;;;;;5000446;28;19922;-53
2023/04/26 02:47:41;;;;;;;;;;;19.60;41.90;;;;;;4999735;28;19940;-53
2023/04/26 02:50:06;;;;;;;;;;;19.50;42.10;;;;;;4999600;28;19913;-53
2023/04/26 02:52:32;;;;;;;;;;;19.40;42.10;;;;;;4999843;28;20389;-54
2023/04/26 02:54:58;;;;;;;;;;;19.50;42.20;;;;;;4998077;28;19980;-53
2023/04/26 02:57:23;;;;;;;;;;;19.40;42.00;;;;;;5001373;28;19925;-54
2023/04/26 02:59:49;;;;;;;;;;;19.50;42.30;;;;;;5001608;28;19944;-53
2023/04/26 03:02:15;;;;;;;;;;;19.40;42.20;;;;;;4990125;28;19996;-53
2023/04/26 03:04:40;;;;;;;;;;;19.40;42.00;;;;;;4996176;28;19997;-53
2023/04/26 03:07:06;;;;;;;;;;;19.40;42.10;;;;;;4999585;28;19953;-54
2023/04/26 03:09:33;;;;;;;;;;;19.40;42.10;;;;;;5002464;28;19914;-55
2023/04/26 03:11:58;;;;;;;;;;;19.40;42.10;;;;;;5001618;28;19992;-54
2023/04/26 03:14:24;;;;;;;;;;;19.50;42.00;;;;;;4998864;28;19952;-54
2023/04/26 03:16:49;;;;;;;;;;;19.50;41.90;;;;;;5003439;28;20302;-54
2023/04/26 03:19:15;;;;;;;;;;;19.50;41.80;;;;;;5005557;28;20370;-54
2023/04/26 03:21:40;;;;;;;;;;;19.60;41.90;;;;;;5006262;28;20338;-54
2023/04/26 03:24:06;;;;;;;;;;;19.60;41.90;;;;;;5003823;28;19932;-53
2023/04/26 03:26:31;;;;;;;;;;;19.60;41.60;;;;;;5004058;28;20000;-54
2023/04/26 03:28:57;;;;;;;;;;;19.70;41.70;;;;;;5001479;28;19945;-55
2023/04/26 03:31:22;;;;;;;;;;;19.70;41.60;;;;;;5005249;28;19914;-54
2023/04/26 03:33:48;;;;;;;;;;;19.70;41.60;;;;;;5002681;28;19913;-54
2023/04/26 03:36:14;;;;;;;;;;;19.60;41.60;;;;;;5002768;28;19917;-54
2023/04/26 03:38:39;;;;;;;;;;;19.60;41.70;;;;;;4999817;28;19920;-54
2023/04/26 03:41:05;;;;;;;;;;;19.50;41.60;;;;;;4997018;28;19939;-54
2023/04/26 03:43:31;;;;;;;;;;;19.60;41.80;;;;;;5001838;28;19917;-53
2023/04/26 03:45:56;;;;;;;;;;;19.50;41.70;;;;;;4999658;28;19921;-55
2023/04/26 03:48:21;;;;;;;;;;;19.50;41.60;;;;;;4998556;28;19968;-53
2023/04/26 03:50:47;;;;;;;;;;;19.60;41.70;;;;;;5002441;28;19913;-54
2023/04/26 03:53:12;;;;;;;;;;;19.50;41.70;;;;;;5003932;28;20012;-53
2023/04/26 03:55:38;;;;;;;;;;;19.50;41.70;;;;;;5005470;28;19922;-54
2023/04/26 03:58:06;;;;;;;;;;;19.50;41.70;;;;;;5003739;28;19922;-54
2023/04/26 04:00:33;;;;;;;;;;;19.50;41.90;;;;;;5003504;28;19918;-54
2023/04/26 04:02:58;;;;;;;;;;;19.50;41.80;;;;;;4996182;28;19920;-54
2023/04/26 04:05:24;;;;;;;;;;;19.50;41.80;;;;;;4997162;28;20001;-54
2023/04/26 04:07:49;;;;;;;;;;;19.40;41.90;;;;;;4992671;28;20298;-54
2023/04/26 04:10:15;;;;;;;;;;;19.30;42.00;;;;;;5003922;28;19914;-53
2023/04/26 04:12:40;;;;;;;;;;;19.20;42.00;;;;;;5004709;28;19965;-54
2023/04/26 04:15:07;;;;;;;;;;;19.20;42.00;;;;;;5002022;28;20275;-54
2023/04/26 04:17:32;;;;;;;;;;;19.30;41.90;;;;;;5000701;28;19947;-54
2023/04/26 04:19:58;;;;;;;;;;;19.40;42.00;;;;;;5003793;28;20001;-54
2023/04/26 04:22:23;;;;;;;;;;;19.30;42.40;;;;;;4997134;28;19921;-54
2023/04/26 04:24:48;;;;;;;;;;;19.20;42.30;;;;;;4999389;28;19941;-54
2023/04/26 04:27:15;;;;;;;;;;;19.20;42.40;;;;;;5004997;28;19940;-54
2023/04/26 04:29:41;;;;;;;;;;;19.20;42.20;;;;;;5006112;28;19968;-54
2023/04/26 04:32:06;;;;;;;;;;;19.30;42.10;;;;;;5001298;28;19921;-54
2023/04/26 04:34:38;;;;;;;;;;;19.30;42.00;;;;;;5002446;28;19921;-54
2023/04/26 04:37:03;;;;;;;;;;;19.40;41.90;;;;;;5000332;28;19925;-54
2023/04/26 04:39:29;;;;;;;;;;;19.40;41.90;;;;;;4999050;28;19914;-54
2023/04/26 04:41:55;;;;;;;;;;;19.40;41.80;;;;;;5001356;28;19914;-54
2023/04/26 04:44:22;;;;;;;;;;;19.50;41.70;;;;;;5001396;28;19929;-54
2023/04/26 04:46:48;;;;;;;;;;;19.50;41.70;;;;;;5001105;28;20293;-54
2023/04/26 04:49:13;;;;;;;;;;;19.50;41.60;;;;;;5001080;28;19920;-54
2023/04/26 04:51:39;;;;;;;;;;;19.50;41.60;;;;;;5002431;28;20012;-54
2023/04/26 04:54:10;;;;;;;;;;;19.50;41.50;;;;;;5000018;28;19920;-54
2023/04/26 04:56:36;;;;;;;;;;;19.50;41.60;;;;;;4997341;28;20036;-54
2023/04/26 04:59:01;;;;;;;;;;;19.50;41.60;;;;;;5000693;28;20000;-54
2023/04/26 05:01:27;;;;;;;;;;;19.50;41.90;;;;;;4999581;28;19917;-54
2023/04/26 05:03:53;;;;;;;;;;;19.40;41.60;;;;;;5006956;28;19921;-54
2023/04/26 05:06:18;;;;;;;;;;;19.40;41.60;;;;;;4997748;28;20362;-54
2023/04/26 05:08:44;;;;;;;;;;;19.40;41.50;;;;;;4998967;28;20344;-54
2023/04/26 05:11:09;;;;;;;;;;;19.40;41.80;;;;;;5001318;28;19918;-54
2023/04/26 05:13:35;;;;;;;;;;;19.30;41.80;;;;;;5001147;28;19952;-53
2023/04/26 05:16:00;;;;;;;;;;;19.30;41.60;;;;;;5003739;28;19914;-53
2023/04/26 05:18:26;;;;;;;;;;;19.40;41.80;;;;;;5001791;28;19964;-54
2023/04/26 05:20:51;;;;;;;;;;;19.40;41.80;;;;;;4997839;28;20298;-53
2023/04/26 05:23:16;;;;;;;;;;;19.40;41.70;;;;;;4995732;28;19910;-54
2023/04/26 05:25:42;;;;;;;;;;;19.30;41.90;;;;;;4996952;28;19921;-54
2023/04/26 05:28:11;;;;;;;;;;;19.30;41.70;;;;;;5003344;28;19960;-54
2023/04/26 05:30:37;;;;;;;;;;;19.40;41.80;;;;;;5000692;28;19961;-54
2023/04/26 05:33:02;;;;;;;;;;;19.30;41.80;;;;;;4997914;28;19949;-53
2023/04/26 05:35:28;;;;;;;;;;;19.30;41.90;;;;;;5006018;28;19914;-54
2023/04/26 05:37:53;;;;;;;;;;;19.30;42.10;;;;;;4999999;28;20840;-54
2023/04/26 05:40:18;;;;;;;;;;;19.20;42.00;;;;;;5003120;28;20354;-53
2023/04/26 05:42:44;;;;;;;;;;;19.20;42.00;;;;;;5002495;28;19910;-54
2023/04/26 05:45:09;;;;;;;;;;;19.20;42.00;;;;;;4999380;28;19921;-54
2023/04/26 05:47:35;;;;;;;;;;;19.20;42.00;;;;;;4993812;28;20076;-54
2023/04/26 05:50:01;;;;;;;;;;;19.20;42.10;;;;;;5000243;28;20320;-54
2023/04/26 05:52:27;;;;;;;;;;;19.30;42.00;;;;;;4999860;28;20055;-53
2023/04/26 05:54:52;;;;;;;;;;;19.30;41.90;;;;;;4990845;28;19918;-54
2023/04/26 05:57:18;;;;;;;;;;;19.40;41.90;;;;;;5002966;28;19924;-54
2023/04/26 05:59:43;;;;;;;;;;;19.30;41.80;;;;;;4998911;28;19914;-54
2023/04/26 06:02:09;;;;;;;;;;;19.30;41.80;;;;;;4990725;28;20475;-54
2023/04/26 06:04:34;;;;;;;;;;;19.30;41.80;;;;;;5001014;28;19920;-54
2023/04/26 06:07:00;;;;;;;;;;;19.30;41.80;;;;;;4998405;28;19920;-54
2023/04/26 06:09:26;;;;;;;;;;;19.30;41.90;;;;;;4996086;28;19922;-54
2023/04/26 06:11:51;;;;;;;;;;;19.30;41.80;;;;;;5024026;28;19925;-54
2023/04/26 06:14:17;;;;;;;;;;;19.30;41.80;;;;;;5002370;28;20389;-54
2023/04/26 06:16:42;;;;;;;;;;;19.30;41.70;;;;;;4995396;28;20413;-54
2023/04/26 06:19:07;;;;;;;;;;;19.30;41.70;;;;;;4996814;28;20420;-54
2023/04/26 06:21:33;;;;;;;;;;;19.40;41.80;;;;;;5003462;28;20381;-54
2023/04/26 06:23:58;;;;;;;;;;;19.40;41.70;;;;;;4996146;28;19913;-54
2023/04/26 06:26:24;;;;;;;;;;;19.40;41.80;;;;;;5000984;28;19921;-54
2023/04/26 06:28:49;;;;;;;;;;;19.40;41.80;;;;;;4997372;28;19922;-53
2023/04/26 06:31:15;;;;;;;;;;;19.40;41.80;;;;;;5000191;28;19957;-54
2023/04/26 06:33:40;;;;;;;;;;;19.40;41.70;;;;;;5003509;28;19979;-54
2023/04/26 06:36:09;;;;;;;;;;;19.50;41.80;;;;;;4997142;28;20401;-54
2023/04/26 06:38:35;;;;;;;;;;;19.50;41.80;;;;;;4995804;28;19922;-54
2023/04/26 06:41:00;;;;;;;;;;;19.50;41.80;;;;;;5031941;28;19918;-53
2023/04/26 06:43:26;;;;;;;;;;;19.50;41.80;;;;;;5000296;28;19929;-55
2023/04/26 06:45:52;;;;;;;;;;;19.50;41.80;;;;;;4990566;28;19920;-54
2023/04/26 06:48:17;;;;;;;;;;;19.40;41.80;;;;;;4996086;28;19913;-54
2023/04/26 06:50:42;;;;;;;;;;;19.40;41.90;;;;;;4995845;28;19914;-54
2023/04/26 06:53:08;;;;;;;;;;;19.40;42.00;;;;;;4997526;28;19918;-54
2023/04/26 06:55:34;;;;;;;;;;;19.40;41.90;;;;;;4999905;28;19914;-53
2023/04/26 06:57:59;;;;;;;;;;;19.40;41.90;;;;;;4992175;28;19925;-54
2023/04/26 07:00:24;;;;;;;;;;;19.40;41.90;;;;;;4998700;28;19913;-54
2023/04/26 07:02:50;;;;;;;;;;;19.30;42.10;;;;;;4999958;28;20017;-54
2023/04/26 07:05:16;;;;;;;;;;;19.30;42.10;;;;;;4993947;28;20535;-54
2023/04/26 07:07:41;;;;;;;;;;;19.30;42.10;;;;;;4996748;28;20048;-55
2023/04/26 07:10:07;;;;;;;;;;;19.30;42.10;;;;;;4998827;28;19924;-54
2023/04/26 07:12:32;;;;;;;;;;;19.20;42.20;;;;;;4996163;28;19925;-54
2023/04/26 07:15:00;;;;;;;;;;;19.10;42.60;;;;;;4994225;28;19971;-54
2023/04/26 07:17:25;;;;;;;;;;;19.10;42.50;;;;;;4988512;28;19925;-54
2023/04/26 07:19:51;;;;;;;;;;;19.20;42.50;;;;;;4979899;28;19918;-53
2023/04/26 07:22:16;;;;;;;;;;;19.20;43.10;;;;;;4980281;28;20026;-54
2023/04/26 07:24:42;;;;;;;;;;;19.60;42.80;;;;;;4988573;28;20417;-53
2023/04/26 07:27:07;;;;;;;;;;;20.30;41.70;;;;;;4983397;28;19945;-54
2023/04/26 07:29:33;;;;;;;;;;;21.00;40.50;;;;;;4991099;28;19956;-54
2023/04/26 07:31:58;;;;;;;;;;;21.60;39.50;;;;;;4984725;28;20427;-53
2023/04/26 07:34:24;;;;;;;;;;;21.90;38.80;;;;;;4986767;28;19913;-54
2023/04/26 07:36:49;;;;;;;;;;;22.10;38.70;;;;;;5024538;28;19921;-54
2023/04/26 07:39:15;;;;;;;;;;;22.10;38.50;;;;;;4991163;28;20301;-53
2023/04/26 07:41:41;;;;;;;;;;;22.30;38.40;;;;;;4990224;28;20274;-53
2023/04/26 07:44:06;;;;;;;;;;;22.60;38.00;;;;;;4995427;28;19918;-53
2023/04/26 07:46:32;;;;;;;;;;;22.70;37.60;;;;;;4995783;28;19933;-53
2023/04/26 07:48:58;;;;;;;;;;;22.90;37.30;;;;;;4998149;28;19918;-54
2023/04/26 07:51:23;;;;;;;;;;;23.10;37.00;;;;;;4992065;28;19921;-55
2023/04/26 07:53:49;;;;;;;;;;;23.30;36.80;;;;;;4990536;28;19985;-54
2023/04/26 07:56:14;;;;;;;;;;;23.30;36.60;;;;;;4997142;28;19917;-54
2023/04/26 07:58:40;;;;;;;;;;;23.40;36.60;;;;;;4994375;28;19928;-54
2023/04/26 08:01:06;;;;;;;;;;;23.50;36.40;;;;;;4997991;28;19925;-56
2023/04/26 08:03:31;;;;;;;;;;;23.60;36.40;;;;;;4992323;28;19913;-55
2023/04/26 08:05:57;;;;;;;;;;;23.60;36.40;;;;;;4991508;28;19917;-53
2023/04/26 08:08:24;;;;;;;;;;;23.70;36.30;;;;;;4998341;28;19961;-54
2023/04/26 08:10:50;;;;;;;;;;;23.50;36.40;;;;;;5000625;28;19914;-55
2023/04/26 08:13:15;;;;;;;;;;;23.20;36.70;;;;;;4989313;28;19922;-54
2023/04/26 08:15:41;;;;;;;;;;;23.20;36.70;;;;;;4997177;28;19914;-55
2023/04/26 08:18:06;;;;;;;;;;;23.30;36.60;;;;;;4992290;28;19922;-55
2023/04/26 08:20:32;;;;;;;;;;;23.10;37.50;;;;;;4992312;28;19914;-54
2023/04/26 08:22:57;;;;;;;;;;;23.00;37.20;;;;;;4994497;28;19932;-54
2023/04/26 08:25:23;;;;;;;;;;;23.00;37.30;;;;;;4993632;28;20494;-54
2023/04/26 08:27:48;;;;;;;;;;;23.20;36.80;;;;;;5019765;28;19921;-55
2023/04/26 08:30:14;;;;;;;;;;;23.40;36.40;;;;;;4997678;28;20008;-53
2023/04/26 08:32:39;;;;;;;;;;;23.60;36.40;;;;;;4995095;28;19914;-55
2023/04/26 08:35:05;;;;;;;;;;;23.70;36.50;;;;;;4992461;28;19914;-54
2023/04/26 08:37:30;;;;;;;;;;;23.70;36.50;;;;;;5001425;28;20391;-53
2023/04/26 08:39:56;;;;;;;;;;;23.70;36.50;;;;;;4995057;28;20167;-54
2023/04/26 08:42:22;;;;;;;;;;;23.80;36.40;;;;;;4990901;28;19918;-54
2023/04/26 08:44:48;;;;;;;;;;;23.80;36.40;;;;;;5007167;28;19914;-54
2023/04/26 08:47:13;;;;;;;;;;;23.90;36.30;;;;;;5027842;28;19921;-54
2023/04/26 08:49:40;;;;;;;;;;;23.80;36.40;;;;;;4996727;28;19929;-53
2023/04/26 08:52:10;;;;;;;;;;;23.90;36.30;;;;;;4994047;28;19918;-54
2023/04/26 08:54:35;;;;;;;;;;;23.90;36.40;;;;;;4999649;28;19909;-53
2023/04/26 08:57:01;;;;;;;;;;;24.00;36.20;;;;;;4996617;28;19921;-55
2023/04/26 08:59:27;;;;;;;;;;;24.00;36.20;;;;;;4983276;28;19918;-54
2023/04/26 09:01:53;;;;;;;;;;;23.80;36.50;;;;;;5019678;28;20852;-53
2023/04/26 09:04:18;;;;;;;;;;;23.70;36.60;;;;;;4981696;28;19922;-53
2023/04/26 09:06:44;;;;;;;;;;;23.70;36.70;;;;;;4992924;28;20025;-54
2023/04/26 09:09:10;;;;;;;;;;;23.70;36.70;;;;;;4992630;28;19968;-53
2023/04/26 09:11:54;;;;;;;;;;;23.60;36.90;;;;;;4984751;28;20017;-54
2023/04/26 09:14:20;;;;;;;;;;;23.60;37.00;;;;;;4989736;28;19921;-55
2023/04/26 09:16:45;;;;;;;;;;;23.50;37.00;;;;;;4994164;28;19941;-54
2023/04/26 09:19:11;;;;;;;;;;;23.30;37.20;;;;;;4992513;28;19918;-55
2023/04/26 09:21:45;;;;;;;;;;;23.30;37.40;;;;;;4984906;28;19918;-54
2023/04/26 09:24:11;;;;;;;;;;;23.40;37.40;;;;;;4988594;28;19921;-55
2023/04/26 09:26:36;;;;;;;;;;;23.50;37.10;;;;;;4990401;28;19917;-55
2023/04/26 09:29:15;;;;;;;;;;;23.50;37.00;;;;;;4997169;28;20013;-55
2023/04/26 09:31:41;;;;;;;;;;;23.70;36.90;;;;;;4992782;28;19914;-54
2023/04/26 09:34:07;;;;;;;;;;;23.80;36.80;;;;;;4999511;28;19914;-55
2023/04/26 09:36:44;;;;;;;;;;;23.70;36.80;;;;;;4994944;28;20011;-54
2023/04/26 09:39:10;;;;;;;;;;;23.80;36.80;;;;;;4993556;28;20435;-55
2023/04/26 09:41:42;;;;;;;;;;;24.00;36.80;;;;;;4997127;28;20013;-54
2023/04/26 09:44:19;;;;;;;;;;;24.00;36.70;;;;;;4993410;28;19960;-54
2023/04/26 09:46:55;;;;;;;;;;;23.80;36.80;;;;;;5001168;28;19924;-54
2023/04/26 09:49:21;;;;;;;;;;;23.70;37.20;;;;;;4995067;28;19917;-53
2023/04/26 09:51:58;;;;;;;;;;;23.70;37.20;;;;;;4992284;28;19933;-54
2023/04/26 09:54:36;;;;;;;;;;;23.60;37.20;;;;;;4996600;28;19914;-54
2023/04/26 09:57:01;;;;;;;;;;;23.40;37.60;;;;;;4990192;28;20353;-55
2023/04/26 09:59:37;;;;;;;;;;;23.40;38.30;;;;;;4996193;28;19918;-54
2023/04/26 10:02:03;;;;;;;;;;;23.60;37.30;;;;;;4994430;28;20076;-54
2023/04/26 10:04:28;;;;;;;;;;;23.80;36.80;;;;;;4995941;28;20446;-54
2023/04/26 10:06:53;;;;;;;;;;;23.70;37.00;;;;;;5008845;28;19969;-54
2023/04/26 10:09:19;;;;;;;;;;;23.60;37.40;;;;;;5006337;28;19989;-54
2023/04/26 10:11:44;;;;;;;;;;;23.60;37.40;;;;;;4983322;28;19991;-54
2023/04/26 10:14:10;;;;;;;;;;;23.80;37.00;;;;;;4987222;28;19928;-54
2023/04/26 10:16:36;;;;;;;;;;;24.00;36.80;;;;;;4991486;28;20356;-54
2023/04/26 10:19:01;;;;;;;;;;;24.00;36.60;;;;;;5020719;28;19921;-54
2023/04/26 10:21:27;;;;;;;;;;;24.00;36.70;;;;;;4999443;28;19924;-53
2023/04/26 10:23:53;;;;;;;;;;;23.90;36.70;;;;;;5006403;28;20370;-54
2023/04/26 10:26:37;;;;;;;;;;;23.90;36.70;;;;;;4994874;28;19914;-54
2023/04/26 10:29:03;;;;;;;;;;;23.80;36.60;;;;;;4992266;28;19910;-54
2023/04/26 10:31:48;;;;;;;;;;;23.80;36.60;;;;;;4991375;28;19914;-54
2023/04/26 10:34:19;;;;;;;;;;;23.70;36.70;;;;;;4996001;28;20289;-54
2023/04/26 10:37:03;;;;;;;;;;;23.60;36.90;;;;;;5024662;28;20451;-54
2023/04/26 10:39:29;;;;;;;;;;;23.60;37.00;;;;;;4988680;28;19913;-54
2023/04/26 10:42:17;;;;;;;;;;;23.40;37.30;;;;;;4992432;28;19925;-54
2023/04/26 10:44:44;;;;;;;;;;;23.40;37.40;;;;;;4997265;28;19922;-54
2023/04/26 10:47:20;;;;;;;;;;;23.50;37.20;;;;;;5003399;28;20302;-54
2023/04/26 10:49:47;;;;;;;;;;;23.70;36.90;;;;;;4994665;28;19921;-54
2023/04/26 10:52:16;;;;;;;;;;;23.90;36.70;;;;;;4989829;28;19940;-54
2023/04/26 10:54:48;;;;;;;;;;;24.00;36.80;;;;;;4984582;28;20007;-54
2023/04/26 10:57:14;;;;;;;;;;;24.10;36.50;;;;;;4982951;28;20055;-54
2023/04/26 10:59:39;;;;;;;;;;;24.20;36.40;;;;;;4997355;28;19921;-54
2023/04/26 11:02:09;;;;;;;;;;;24.20;36.20;;;;;;4989391;28;20000;-55
2023/04/26 11:04:50;;;;;;;;;;;24.30;36.20;;;;;;4986200;28;20269;-54
2023/04/26 11:07:16;;;;;;;;;;;24.30;36.10;;;;;;5001015;28;19918;-55
2023/04/26 11:09:48;;;;;;;;;;;24.40;35.80;;;;;;5024686;28;19918;-54
2023/04/26 11:12:14;;;;;;;;;;;24.50;35.60;;;;;;4995391;28;19929;-54
2023/04/26 11:14:40;;;;;;;;;;;24.50;35.70;;;;;;4992130;28;19914;-54
2023/04/26 11:17:07;;;;;;;;;;;24.30;36.10;;;;;;4988788;28;19926;-54
2023/04/26 11:19:32;;;;;;;;;;;24.30;36.20;;;;;;5004869;28;19922;-55
2023/04/26 11:21:58;;;;;;;;;;;24.30;36.20;;;;;;4986094;28;19968;-54
2023/04/26 11:24:24;;;;;;;;;;;24.10;36.40;;;;;;4988645;28;19918;-55
2023/04/26 11:26:50;;;;;;;;;;;24.00;36.60;;;;;;4990171;28;19921;-55
2023/04/26 11:29:19;;;;;;;;;;;24.10;36.70;;;;;;4987894;28;19917;-54
2023/04/26 11:31:51;;;;;;;;;;;23.90;36.70;;;;;;5028304;28;19920;-55
2023/04/26 11:34:18;;;;;;;;;;;23.80;36.90;;;;;;5033388;28;19971;-55
2023/04/26 11:36:45;;;;;;;;;;;23.60;37.10;;;;;;4994978;28;19927;-55
2023/04/26 11:39:10;;;;;;;;;;;23.70;37.00;;;;;;5001151;28;19913;-55
2023/04/26 11:41:36;;;;;;;;;;;23.90;36.70;;;;;;5005015;28;19922;-55
2023/04/26 11:44:01;;;;;;;;;;;24.20;36.40;;;;;;5006614;28;20330;-53
2023/04/26 11:46:27;;;;;;;;;;;24.50;36.10;;;;;;5026620;28;19928;-53
2023/04/26 11:48:52;;;;;;;;;;;24.50;36.10;;;;;;4999538;28;19917;-54
2023/04/26 11:51:17;;;;;;;;;;;24.40;36.20;;;;;;4997465;28;19952;-54
2023/04/26 11:53:44;;;;;;;;;;;24.30;36.60;;;;;;4989036;28;19914;-53
2023/04/26 11:56:16;;;;;;;;;;;24.30;36.50;;;;;;5003301;28;19983;-53
2023/04/26 11:58:48;;;;;;;;;;;24.50;36.30;;;;;;4996952;28;20358;-53
2023/04/26 12:01:20;;;;;;;;;;;24.70;36.10;;;;;;4992548;28;19957;-53
2023/04/26 12:03:48;;;;;;;;;;;24.70;36.00;;;;;;4994216;28;20264;-53
2023/04/26 12:06:13;;;;;;;;;;;24.60;36.30;;;;;;4988410;28;19921;-53
2023/04/26 12:08:39;;;;;;;;;;;24.50;36.30;;;;;;4991561;28;19914;-54
2023/04/26 12:11:04;;;;;;;;;;;24.60;36.30;;;;;;5005797;28;19913;-54
2023/04/26 12:13:31;;;;;;;;;;;24.70;36.10;;;;;;4993962;28;19922;-54
2023/04/26 12:15:56;;;;;;;;;;;24.90;36.70;;;;;;4993871;28;19917;-54
2023/04/26 12:18:27;;;;;;;;;;;25.00;35.80;;;;;;4989749;28;19996;-54
2023/04/26 12:20:56;;;;;;;;;;;25.20;35.60;;;;;;5028693;28;20266;-54
2023/04/26 12:23:21;;;;;;;;;;;25.30;35.50;;;;;;4994521;28;20289;-53
2023/04/26 12:25:51;;;;;;;;;;;25.40;35.30;;;;;;5030923;28;19932;-53
2023/04/26 12:28:16;;;;;;;;;;;25.40;35.40;;;;;;4993527;28;19956;-54
2023/04/26 12:30:42;;;;;;;;;;;25.40;35.20;;;;;;4993430;28;19957;-53
2023/04/26 12:33:07;;;;;;;;;;;25.40;35.40;;;;;;4985467;28;19925;-54
2023/04/26 12:35:33;;;;;;;;;;;25.50;35.20;;;;;;4998569;28;19918;-54
2023/04/26 12:38:00;;;;;;;;;;;25.60;35.10;;;;;;4999240;28;19922;-55
2023/04/26 12:40:26;;;;;;;;;;;25.60;35.00;;;;;;4997643;28;19966;-53
2023/04/26 12:42:51;;;;;;;;;;;25.60;35.10;;;;;;4994026;28;19925;-54
2023/04/26 12:45:17;;;;;;;;;;;25.50;35.20;;;;;;4994707;28;19918;-54
2023/04/26 12:47:43;;;;;;;;;;;25.60;35.30;;;;;;4991176;28;19920;-53
2023/04/26 12:50:11;;;;;;;;;;;25.50;35.30;;;;;;5002634;28;19913;-53
2023/04/26 12:52:37;;;;;;;;;;;25.50;35.40;;;;;;4996314;28;19917;-54
2023/04/26 12:55:03;;;;;;;;;;;25.40;35.50;;;;;;4992458;28;19909;-54
2023/04/26 12:57:29;;;;;;;;;;;25.40;35.50;;;;;;4997314;28;20060;-53
2023/04/26 12:59:55;;;;;;;;;;;25.40;35.50;;;;;;4989274;28;20000;-53
2023/04/26 13:02:21;;;;;;;;;;;25.30;35.60;;;;;;4983359;28;19914;-53
2023/04/26 13:04:46;;;;;;;;;;;25.20;35.80;;;;;;4989751;28;19924;-53
2023/04/26 13:07:12;;;;;;;;;;;25.10;36.10;;;;;;4989989;28;19922;-54
2023/04/26 13:09:37;;;;;;;;;;;24.90;36.20;;;;;;4995561;28;19918;-54
2023/04/26 13:12:02;;;;;;;;;;;25.00;36.30;;;;;;4994442;28;20004;-53
2023/04/26 13:14:28;;;;;;;;;;;25.00;36.20;;;;;;4989165;28;19965;-53
2023/04/26 13:16:54;;;;;;;;;;;24.90;36.20;;;;;;5001135;28;20317;-54
2023/04/26 13:19:19;;;;;;;;;;;24.70;36.60;;;;;;4992621;28;19914;-55
2023/04/26 13:21:45;;;;;;;;;;;24.80;36.80;;;;;;4988936;28;19936;-55
2023/04/26 13:24:10;;;;;;;;;;;24.90;36.40;;;;;;4985363;28;19949;-54
2023/04/26 13:26:36;;;;;;;;;;;25.10;36.10;;;;;;4991253;28;19917;-54
2023/04/26 13:29:03;;;;;;;;;;;25.40;35.80;;;;;;4992653;28;20012;-54
2023/04/26 13:31:28;;;;;;;;;;;25.40;35.60;;;;;;4992315;28;19914;-53
2023/04/26 13:33:54;;;;;;;;;;;25.40;35.80;;;;;;4990060;28;19929;-54
2023/04/26 13:36:19;;;;;;;;;;;25.30;36.00;;;;;;4991132;28;20004;-53
2023/04/26 13:38:45;;;;;;;;;;;25.30;36.20;;;;;;4988526;28;20366;-54
2023/04/26 13:41:10;;;;;;;;;;;25.40;35.90;;;;;;4994312;28;19918;-54
2023/04/26 13:43:36;;;;;;;;;;;25.40;36.00;;;;;;4991211;28;19918;-54
2023/04/26 13:46:01;;;;;;;;;;;25.50;35.90;;;;;;4994361;28;19914;-54
2023/04/26 13:48:27;;;;;;;;;;;25.50;35.70;;;;;;4993931;28;20374;-54
2023/04/26 13:50:52;;;;;;;;;;;25.60;35.60;;;;;;5001601;28;19991;-54
2023/04/26 13:53:21;;;;;;;;;;;25.60;35.60;;;;;;5007345;28;19921;-54
2023/04/26 13:55:47;;;;;;;;;;;25.60;35.50;;;;;;4995530;28;19918;-54
2023/04/26 13:58:12;;;;;;;;;;;25.60;35.60;;;;;;4987593;28;20372;-53
2023/04/26 14:00:37;;;;;;;;;;;25.50;35.60;;;;;;4985799;28;19964;-53
2023/04/26 14:03:03;;;;;;;;;;;25.60;35.40;;;;;;4984486;28;19914;-53
2023/04/26 14:05:28;;;;;;;;;;;25.60;35.40;;;;;;4988069;28;19949;-54
2023/04/26 14:07:54;;;;;;;;;;;25.40;35.80;;;;;;5000846;28;19918;-53
2023/04/26 14:10:19;;;;;;;;;;;25.10;36.40;;;;;;4992546;28;19914;-53